createdAt,value
2022-08-28T00:01:04.875Z,5.20
2022-08-28T00:03:31.690Z,4.85
2022-08-28T00:05:59.180Z,4.97
2022-08-28T00:08:26.605Z,5.18
2022-08-28T00:10:53.757Z,5.20
2022-08-28T00:13:22.586Z,5.82
2022-08-28T00:15:52.239Z,5.13
2022-08-28T00:18:19.465Z,5.68
2022-08-28T00:20:45.996Z,5.35
2022-08-28T00:23:12.352Z,4.63
2022-08-28T00:25:38.697Z,4.85
2022-08-28T00:28:08.737Z,4.15
2022-08-28T00:30:45.864Z,4.38
2022-08-28T00:33:18.552Z,5.47
2022-08-28T00:35:45.318Z,4.90
2022-08-28T00:38:13.155Z,4.78
2022-08-28T00:40:43.139Z,4.80
2022-08-28T00:43:12.031Z,5.00
2022-08-28T00:45:40.025Z,5.88
2022-08-28T00:48:07.566Z,4.25
2022-08-28T00:50:35.493Z,5.75
2022-08-28T00:53:01.806Z,4.82
2022-08-28T00:55:28.988Z,5.15
2022-08-28T00:57:59.724Z,4.63
2022-08-28T01:00:32.325Z,5.47
2022-08-28T01:02:58.777Z,5.07
2022-08-28T01:05:26.412Z,5.60
2022-08-28T01:07:53.834Z,4.78
2022-08-28T01:10:23.044Z,5.43
2022-08-28T01:12:49.887Z,5.57
2022-08-28T01:15:20.401Z,5.03
2022-08-28T01:17:50.717Z,4.97
2022-08-28T01:20:21.559Z,4.93
2022-08-28T01:23:24.895Z,4.65
2022-08-28T01:25:51.466Z,5.65
2022-08-28T01:28:18.128Z,4.85
2022-08-28T01:30:46.771Z,4.53
2022-08-28T01:33:13.399Z,5.45
2022-08-28T01:35:45.123Z,5.00
2022-08-28T01:38:11.788Z,4.70
2022-08-28T01:40:42.165Z,4.75
2022-08-28T01:43:18.536Z,4.85
2022-08-28T01:45:51.946Z,4.80
2022-08-28T01:50:45.787Z,4.88
2022-08-28T01:53:15.159Z,4.88
2022-08-28T01:55:43.114Z,4.63
2022-08-28T01:58:10.553Z,4.47
2022-08-28T02:00:37.452Z,4.95
2022-08-28T02:03:03.890Z,5.18
2022-08-28T02:05:31.826Z,4.65
2022-08-28T02:08:00.205Z,4.65
2022-08-28T02:10:28.691Z,5.10
2022-08-28T02:12:59.131Z,4.97
2022-08-28T02:15:27.311Z,5.03
2022-08-28T02:17:53.903Z,4.35
2022-08-28T02:20:20.261Z,5.22
2022-08-28T02:22:46.563Z,4.60
2022-08-28T02:25:12.948Z,5.20
2022-08-28T02:27:39.426Z,4.80
2022-08-28T02:30:08.878Z,4.50
2022-08-28T02:32:35.454Z,4.43
2022-08-28T02:35:02.437Z,4.88
2022-08-28T02:37:28.744Z,4.60
2022-08-28T02:39:57.947Z,4.80
2022-08-28T02:42:24.380Z,5.43
2022-08-28T02:44:50.676Z,5.55
2022-08-28T02:47:17.023Z,4.45
2022-08-28T02:49:43.353Z,4.95
2022-08-28T02:52:10.495Z,5.43
2022-08-28T02:54:37.161Z,4.70
2022-08-28T02:57:03.618Z,4.85
2022-08-28T02:59:30.064Z,4.88
2022-08-28T03:01:56.412Z,4.53
2022-08-28T03:04:22.820Z,4.20
2022-08-28T03:06:49.116Z,4.72
2022-08-28T03:09:15.510Z,4.72
2022-08-28T03:11:42.092Z,4.10
2022-08-28T03:14:08.398Z,4.22
2022-08-28T03:16:35.003Z,4.47
2022-08-28T03:19:01.336Z,4.40
2022-08-28T03:21:27.687Z,4.00
2022-08-28T03:23:54.030Z,4.20
2022-08-28T03:26:21.093Z,5.35
2022-08-28T03:28:52.031Z,4.03
2022-08-28T03:31:21.557Z,5.00
2022-08-28T03:33:48.496Z,4.75
2022-08-28T03:36:20.847Z,4.55
2022-08-28T03:38:48.474Z,4.43
2022-08-28T03:41:17.447Z,4.68
2022-08-28T03:43:44.353Z,5.57
2022-08-28T03:46:19.566Z,5.07
2022-08-28T03:48:46.524Z,4.70
2022-08-28T03:51:16.861Z,4.10
2022-08-28T03:53:44.327Z,4.65
2022-08-28T03:56:14.418Z,4.63
2022-08-28T03:58:41.879Z,4.78
2022-08-28T04:01:09.502Z,4.00
2022-08-28T04:03:36.652Z,4.15
2022-08-28T04:06:03.597Z,5.15
2022-08-28T04:08:30.051Z,4.68
2022-08-28T04:10:56.491Z,4.57
2022-08-28T04:13:22.900Z,4.40
2022-08-28T04:15:58.033Z,4.18
2022-08-28T04:18:24.385Z,4.20
2022-08-28T04:21:05.349Z,4.30
2022-08-28T04:23:31.852Z,4.45
2022-08-28T04:25:58.162Z,4.20
2022-08-28T04:28:24.979Z,4.22
2022-08-28T04:30:53.059Z,4.00
2022-08-28T04:33:19.366Z,4.13
2022-08-28T04:35:45.749Z,4.63
2022-08-28T04:38:12.050Z,4.15
2022-08-28T04:40:40.428Z,4.55
2022-08-28T04:43:07.411Z,3.88
2022-08-28T04:45:40.458Z,3.83
2022-08-28T04:48:10.518Z,4.25
2022-08-28T04:50:44.726Z,4.90
2022-08-28T04:53:11.684Z,4.40
2022-08-28T04:55:53.938Z,4.82
2022-08-28T04:58:23.690Z,5.35
2022-08-28T05:00:51.987Z,4.57
2022-08-28T05:03:18.405Z,4.30
2022-08-28T05:05:46.972Z,4.38
2022-08-28T05:08:15.025Z,4.53
2022-08-28T05:10:42.752Z,4.72
2022-08-28T05:13:11.039Z,4.50
2022-08-28T05:15:39.005Z,4.35
2022-08-28T05:18:05.715Z,4.95
2022-08-28T05:20:39.676Z,5.78
2022-08-28T05:23:06.903Z,4.32
2022-08-28T05:25:38.504Z,4.55
2022-08-28T05:28:05.725Z,4.95
2022-08-28T05:30:33.326Z,4.30
2022-08-28T05:33:00.530Z,4.80
2022-08-28T05:35:27.602Z,4.85
2022-08-28T05:37:53.916Z,4.53
2022-08-28T05:40:21.585Z,4.05
2022-08-28T05:42:51.840Z,5.43
2022-08-28T05:45:19.437Z,4.18
2022-08-28T05:47:45.781Z,4.60
2022-08-28T05:50:12.230Z,4.82
2022-08-28T05:52:38.537Z,5.03
2022-08-28T05:55:05.656Z,4.00
2022-08-28T05:57:31.980Z,4.38
2022-08-28T05:59:58.311Z,4.43
2022-08-28T06:02:24.671Z,4.20
2022-08-28T06:04:51.154Z,4.63
2022-08-28T06:07:17.462Z,4.95
2022-08-28T06:09:43.806Z,5.38
2022-08-28T06:12:10.549Z,3.28
2022-08-28T06:14:38.481Z,4.32
2022-08-28T06:17:05.188Z,3.97
2022-08-28T06:19:35.589Z,4.53
2022-08-28T06:22:07.257Z,3.75
2022-08-28T06:24:34.439Z,3.75
2022-08-28T06:27:00.742Z,4.45
2022-08-28T06:29:27.993Z,4.35
2022-08-28T06:32:00.201Z,3.80
2022-08-28T06:34:27.850Z,4.45
2022-08-28T06:36:54.493Z,4.03
2022-08-28T06:39:22.001Z,4.00
2022-08-28T06:41:48.466Z,4.18
2022-08-28T06:44:18.160Z,4.40
2022-08-28T06:46:44.604Z,3.95
2022-08-28T06:49:10.995Z,5.13
2022-08-28T06:51:37.314Z,4.60
2022-08-28T06:54:04.927Z,4.78
2022-08-28T06:56:31.919Z,3.63
2022-08-28T06:58:58.747Z,4.50
2022-08-28T07:01:28.144Z,4.30
2022-08-28T07:03:56.598Z,4.90
2022-08-28T07:06:23.589Z,4.10
2022-08-28T07:08:50.288Z,4.30
2022-08-28T07:11:25.991Z,3.85
2022-08-28T07:13:53.664Z,4.05
2022-08-28T07:16:22.579Z,4.38
2022-08-28T07:18:49.119Z,4.10
2022-08-28T07:21:15.714Z,3.53
2022-08-28T07:23:43.520Z,4.35
2022-08-28T07:26:13.795Z,4.38
2022-08-28T07:28:40.436Z,3.90
2022-08-28T07:31:11.440Z,4.43
2022-08-28T07:33:38.639Z,3.38
2022-08-28T07:36:07.875Z,3.28
2022-08-28T07:38:42.131Z,3.65
2022-08-28T07:41:23.528Z,3.88
2022-08-28T07:43:50.856Z,3.42
2022-08-28T07:46:17.204Z,4.20
2022-08-28T07:48:43.551Z,4.32
2022-08-28T07:51:09.916Z,3.55
2022-08-28T07:53:36.720Z,3.58
2022-08-28T07:56:04.919Z,4.13
2022-08-28T07:58:31.478Z,3.97
2022-08-28T08:00:58.714Z,3.88
2022-08-28T08:03:25.081Z,3.42
2022-08-28T08:05:53.125Z,3.60
2022-08-28T08:08:19.553Z,3.25
2022-08-28T08:10:45.975Z,3.00
2022-08-28T08:13:12.281Z,3.58
2022-08-28T08:15:38.616Z,3.30
2022-08-28T08:18:05.152Z,3.30
2022-08-28T08:20:31.504Z,3.63
2022-08-28T08:22:57.801Z,4.22
2022-08-28T08:25:24.136Z,3.40
2022-08-28T08:27:50.657Z,3.70
2022-08-28T08:30:17.112Z,3.83
2022-08-28T08:32:43.431Z,3.92
2022-08-28T08:35:09.751Z,3.08
2022-08-28T08:37:36.083Z,3.47
2022-08-28T08:40:02.682Z,3.20
2022-08-28T08:42:32.529Z,3.22
2022-08-28T08:45:01.459Z,2.90
2022-08-28T08:47:48.208Z,3.17
2022-08-28T08:50:18.890Z,3.17
2022-08-28T08:53:19.246Z,3.08
2022-08-28T08:55:48.381Z,2.70
2022-08-28T08:58:31.665Z,3.20
2022-08-28T09:01:04.829Z,2.92
2022-08-28T09:03:40.455Z,2.92
2022-08-28T09:06:21.221Z,3.53
2022-08-28T09:08:52.497Z,2.60
2022-08-28T09:11:41.390Z,3.30
2022-08-28T09:14:19.680Z,2.50
2022-08-28T09:16:47.435Z,3.50
2022-08-28T09:19:18.929Z,3.33
2022-08-28T09:21:46.268Z,2.95
2022-08-28T09:24:28.729Z,3.10
2022-08-28T09:27:00.476Z,3.75
2022-08-28T09:29:39.457Z,2.83
2022-08-28T09:32:25.110Z,3.42
2022-08-28T09:35:30.380Z,2.95
2022-08-28T09:38:18.003Z,2.83
2022-08-28T09:40:44.643Z,2.85
2022-08-28T09:43:17.017Z,3.55
2022-08-28T09:45:43.361Z,3.28
2022-08-28T09:48:22.090Z,3.15
2022-08-28T09:51:00.849Z,3.83
2022-08-28T09:53:27.154Z,3.28
2022-08-28T09:55:59.573Z,2.70
2022-08-28T09:58:54.128Z,3.30
2022-08-28T10:01:46.274Z,2.97
2022-08-28T10:04:15.844Z,2.80
2022-08-28T10:06:53.347Z,2.88
2022-08-28T10:09:48.008Z,3.47
2022-08-28T10:12:48.297Z,3.08
2022-08-28T10:15:43.550Z,3.40
2022-08-28T10:18:49.869Z,3.05
2022-08-28T10:21:19.316Z,2.83
2022-08-28T10:24:14.069Z,3.20
2022-08-28T10:26:47.156Z,2.88
2022-08-28T10:29:34.951Z,3.80
2022-08-28T10:32:24.063Z,3.08
2022-08-28T10:35:05.598Z,2.67
2022-08-28T10:37:42.050Z,2.92
2022-08-28T10:40:20.674Z,2.70
2022-08-28T10:42:55.812Z,3.28
2022-08-28T10:45:25.445Z,2.70
2022-08-28T10:48:05.198Z,3.55
2022-08-28T10:50:43.946Z,2.97
2022-08-28T10:53:15.617Z,2.38
2022-08-28T10:55:54.903Z,2.60
2022-08-28T10:58:25.515Z,3.33
2022-08-28T11:00:59.939Z,2.67
2022-08-28T11:03:35.729Z,3.72
2022-08-28T11:06:14.159Z,2.60
2022-08-28T11:08:40.724Z,3.42
2022-08-28T11:11:13.643Z,3.20
2022-08-28T11:13:46.488Z,2.75
2022-08-28T11:16:20.757Z,3.08
2022-08-28T11:19:17.675Z,2.90
2022-08-28T11:21:53.011Z,2.95
2022-08-28T11:24:31.071Z,2.65
2022-08-28T11:27:19.564Z,3.38
2022-08-28T11:30:09.423Z,2.70
2022-08-28T11:32:37.583Z,2.50
2022-08-28T11:35:30.801Z,2.67
2022-08-28T11:37:57.980Z,2.28
2022-08-28T11:40:30.217Z,2.90
2022-08-28T11:43:14.882Z,3.03
2022-08-28T11:45:43.016Z,2.65
2022-08-28T11:48:25.318Z,2.95
2022-08-28T11:51:08.477Z,3.00
2022-08-28T11:53:58.715Z,3.05
2022-08-28T11:56:47.797Z,2.50
2022-08-28T11:59:35.070Z,2.88
2022-08-28T12:02:39.013Z,3.10
2022-08-28T12:05:08.859Z,6.10
2022-08-28T12:07:44.851Z,2.65
2022-08-28T12:10:20.326Z,2.80
2022-08-28T12:12:46.568Z,3.03
2022-08-28T12:15:28.287Z,2.83
2022-08-28T12:18:13.206Z,2.90
2022-08-28T12:20:51.428Z,2.38
2022-08-28T12:23:23.674Z,2.97
2022-08-28T12:26:00.143Z,2.55
2022-08-28T12:28:37.412Z,2.75
2022-08-28T12:31:06.768Z,2.60
2022-08-28T12:34:04.632Z,2.80
2022-08-28T12:36:31.860Z,3.00
2022-08-28T12:38:58.201Z,2.72
2022-08-28T12:41:24.912Z,2.65
2022-08-28T12:43:56.851Z,2.60
2022-08-28T12:46:29.799Z,2.70
2022-08-28T12:48:59.216Z,2.72
2022-08-28T12:51:34.613Z,2.95
2022-08-28T12:54:06.628Z,2.85
2022-08-28T12:56:36.400Z,2.80
2022-08-28T12:59:41.834Z,2.45
2022-08-28T13:02:26.234Z,2.20
2022-08-28T13:05:00.192Z,2.60
2022-08-28T13:07:33.967Z,2.53
2022-08-28T13:10:06.726Z,2.42
2022-08-28T13:12:55.133Z,2.60
2022-08-28T13:15:49.984Z,2.30
2022-08-28T13:18:35.758Z,2.53
2022-08-28T13:21:17.192Z,2.80
2022-08-28T13:23:58.199Z,2.63
2022-08-28T13:26:35.769Z,2.95
2022-08-28T13:29:23.859Z,2.38
2022-08-28T13:31:59.566Z,2.92
2022-08-28T13:34:31.548Z,3.33
2022-08-28T13:37:04.228Z,2.97
2022-08-28T13:39:35.071Z,3.20
2022-08-28T13:42:12.450Z,3.20
2022-08-28T13:44:49.703Z,2.30
2022-08-28T13:47:16.536Z,2.85
2022-08-28T13:49:43.197Z,2.28
2022-08-28T13:52:10.629Z,2.72
2022-08-28T13:54:38.196Z,3.00
2022-08-28T13:57:08.836Z,3.35
2022-08-28T13:59:35.134Z,2.78
2022-08-28T14:02:04.591Z,2.70
2022-08-28T14:04:31.951Z,3.35
2022-08-28T14:06:58.279Z,2.90
2022-08-28T14:09:24.817Z,2.90
2022-08-28T14:11:51.697Z,2.33
2022-08-28T14:14:18.049Z,2.25
2022-08-28T14:16:44.760Z,2.38
2022-08-28T14:19:11.713Z,2.53
2022-08-28T14:21:40.205Z,2.50
2022-08-28T14:24:07.377Z,2.83
2022-08-28T14:26:33.906Z,2.88
2022-08-28T14:29:01.216Z,2.83
2022-08-28T14:31:28.488Z,2.97
2022-08-28T14:33:56.938Z,2.63
2022-08-28T14:36:29.212Z,2.10
2022-08-28T14:39:00.772Z,2.85
2022-08-28T14:41:29.231Z,2.58
2022-08-28T14:43:57.784Z,2.67
2022-08-28T14:46:30.438Z,2.58
2022-08-28T14:49:04.632Z,2.50
2022-08-28T14:51:32.937Z,2.80
2022-08-28T14:54:00.356Z,2.70
2022-08-28T14:56:27.717Z,2.90
2022-08-28T14:58:59.896Z,2.58
2022-08-28T15:01:36.273Z,2.38
2022-08-28T15:04:13.682Z,2.50
2022-08-28T15:06:40.183Z,2.95
2022-08-28T15:09:06.496Z,2.90
2022-08-28T15:11:32.938Z,2.50
2022-08-28T15:13:59.267Z,2.47
2022-08-28T15:16:30.386Z,2.70
2022-08-28T15:18:58.312Z,2.80
2022-08-28T15:21:52.480Z,3.42
2022-08-28T15:24:21.344Z,2.70
2022-08-28T15:26:47.686Z,2.70
2022-08-28T15:29:14.394Z,3.08
2022-08-28T15:31:44.072Z,2.95
2022-08-28T15:34:15.006Z,3.03
2022-08-28T15:36:43.627Z,2.92
2022-08-28T15:39:11.423Z,2.83
2022-08-28T15:41:37.887Z,3.05
2022-08-28T15:44:05.221Z,2.53
2022-08-28T15:46:34.069Z,2.15
2022-08-28T15:49:02.178Z,2.53
2022-08-28T15:51:29.607Z,3.15
2022-08-28T15:53:55.998Z,2.80
2022-08-28T15:56:22.534Z,3.20
2022-08-28T15:58:48.850Z,3.53
2022-08-28T16:01:15.285Z,2.85
2022-08-28T16:03:41.705Z,2.83
2022-08-28T16:06:16.379Z,3.05
2022-08-28T16:08:44.067Z,3.00
2022-08-28T16:11:14.580Z,3.25
2022-08-28T16:13:40.900Z,3.35
2022-08-28T16:16:07.326Z,2.78
2022-08-28T16:18:33.708Z,2.78
2022-08-28T16:21:04.733Z,3.10
2022-08-28T16:23:32.220Z,2.83
2022-08-28T16:25:59.850Z,3.08
2022-08-28T16:28:27.210Z,3.22
2022-08-28T16:30:54.197Z,2.72
2022-08-28T16:33:20.685Z,3.03
2022-08-28T16:35:54.919Z,3.03
2022-08-28T16:38:23.520Z,3.35
2022-08-28T16:40:50.056Z,3.50
2022-08-28T16:43:16.634Z,3.30
2022-08-28T16:45:45.564Z,3.40
2022-08-28T16:48:13.824Z,3.28
2022-08-28T16:50:42.572Z,3.00
2022-08-28T16:53:09.658Z,2.80
2022-08-28T16:55:37.255Z,2.95
2022-08-28T16:58:04.747Z,4.13
2022-08-28T17:00:34.921Z,3.92
2022-08-28T17:03:12.536Z,3.58
2022-08-28T17:05:40.085Z,6.15
2022-08-28T17:08:08.517Z,6.00
2022-08-28T17:10:36.432Z,3.78
2022-08-28T17:13:02.855Z,3.83
2022-08-28T17:15:29.227Z,3.90
2022-08-28T17:17:56.621Z,3.85
2022-08-28T17:20:23.322Z,3.92
2022-08-28T17:22:49.673Z,4.25
2022-08-28T17:25:16.140Z,7.10
2022-08-28T17:27:42.457Z,4.65
2022-08-28T17:30:09.808Z,4.35
2022-08-28T17:32:36.360Z,3.63
2022-08-28T17:35:04.467Z,4.47
2022-08-28T17:37:30.954Z,3.90
2022-08-28T17:39:57.353Z,4.45
2022-08-28T17:42:23.714Z,4.07
2022-08-28T17:44:50.072Z,3.67
2022-08-28T17:47:16.387Z,4.10
2022-08-28T17:49:42.735Z,3.95
2022-08-28T17:52:09.046Z,4.32
2022-08-28T17:54:35.455Z,3.13
2022-08-28T17:57:01.757Z,4.82
2022-08-28T17:59:28.095Z,3.83
2022-08-28T18:01:54.866Z,3.97
2022-08-28T18:04:24.546Z,3.97
2022-08-28T18:06:51.948Z,4.03
2022-08-28T18:09:18.495Z,4.20
2022-08-28T18:11:44.838Z,4.70
2022-08-28T18:14:11.153Z,4.53
2022-08-28T18:16:38.198Z,5.13
2022-08-28T18:19:07.167Z,4.90
2022-08-28T18:21:33.961Z,4.53
2022-08-28T18:24:00.355Z,4.75
2022-08-28T18:26:26.703Z,4.55
2022-08-28T18:28:53.046Z,4.75
2022-08-28T18:31:19.766Z,4.28
2022-08-28T18:33:46.287Z,4.75
2022-08-28T18:36:13.912Z,4.75
2022-08-28T18:38:40.787Z,4.15
2022-08-28T18:41:08.213Z,4.25
2022-08-28T18:43:34.907Z,4.28
2022-08-28T18:46:02.378Z,4.72
2022-08-28T18:48:29.393Z,4.88
2022-08-28T18:50:55.753Z,4.85
2022-08-28T18:53:23.535Z,4.95
2022-08-28T18:55:53.750Z,4.78
2022-08-28T18:58:20.785Z,5.63
2022-08-28T19:00:47.607Z,4.30
2022-08-28T19:03:13.970Z,4.68
2022-08-28T19:05:40.306Z,5.10
2022-08-28T19:08:06.759Z,4.15
2022-08-28T19:10:35.056Z,4.68
2022-08-28T19:13:02.552Z,4.47
2022-08-28T19:15:29.850Z,4.35
2022-08-28T19:17:57.018Z,4.97
2022-08-28T19:20:23.501Z,4.97
2022-08-28T19:22:49.907Z,4.85
2022-08-28T19:25:25.754Z,5.10
2022-08-28T19:27:56.341Z,4.18
2022-08-28T19:30:25.744Z,4.97
2022-08-28T19:32:52.060Z,4.60
2022-08-28T19:35:18.894Z,4.60
2022-08-28T19:37:45.381Z,4.72
2022-08-28T19:40:12.207Z,4.93
2022-08-28T19:42:39.294Z,5.18
2022-08-28T19:45:07.751Z,4.85
2022-08-28T19:47:35.551Z,4.65
2022-08-28T19:50:03.388Z,4.90
2022-08-28T19:52:29.773Z,4.28
2022-08-28T19:54:56.094Z,4.80
2022-08-28T19:57:22.510Z,5.35
2022-08-28T19:59:48.921Z,4.95
2022-08-28T20:02:15.345Z,4.70
2022-08-28T20:04:41.711Z,4.25
2022-08-28T20:07:08.147Z,4.57
2022-08-28T20:09:34.667Z,4.93
2022-08-28T20:12:00.990Z,4.68
2022-08-28T20:14:27.554Z,4.20
2022-08-28T20:16:53.908Z,5.05
2022-08-28T20:19:20.787Z,4.20
2022-08-28T20:21:48.425Z,4.18
2022-08-28T20:24:18.159Z,3.70
2022-08-28T20:26:44.777Z,4.05
2022-08-28T20:29:12.296Z,4.32
2022-08-28T20:31:41.556Z,4.05
2022-08-28T20:34:09.909Z,3.63
2022-08-28T20:36:36.275Z,4.97
2022-08-28T20:39:02.899Z,4.40
2022-08-28T20:41:29.476Z,4.30
2022-08-28T20:43:56.015Z,4.28
2022-08-28T20:46:22.442Z,3.92
2022-08-28T20:48:49.066Z,4.10
2022-08-28T20:51:15.368Z,5.30
2022-08-28T20:53:41.658Z,4.47
2022-08-28T20:56:09.944Z,4.57
2022-08-28T20:58:37.695Z,4.30
2022-08-28T21:01:04.124Z,4.63
2022-08-28T21:03:30.460Z,4.78
2022-08-28T21:05:56.771Z,4.43
2022-08-28T21:08:23.088Z,4.32
2022-08-28T21:10:51.667Z,4.53
2022-08-28T21:13:18.007Z,4.35
2022-08-28T21:15:44.374Z,4.53
2022-08-28T21:18:10.734Z,4.03
2022-08-28T21:20:38.587Z,4.50
2022-08-28T21:23:05.866Z,4.40
2022-08-28T21:25:32.927Z,4.80
2022-08-28T21:27:59.262Z,5.13
2022-08-28T21:30:30.539Z,3.95
2022-08-28T21:32:56.920Z,4.28
2022-08-28T21:35:23.279Z,4.38
2022-08-28T21:37:49.571Z,4.25
2022-08-28T21:40:16.230Z,4.13
2022-08-28T21:42:43.462Z,4.22
2022-08-28T21:45:12.160Z,4.60
2022-08-28T21:47:39.204Z,4.82
2022-08-28T21:50:06.131Z,4.07
2022-08-28T21:52:32.580Z,4.07
2022-08-28T21:55:01.520Z,4.88
2022-08-28T21:57:29.418Z,4.35
2022-08-28T21:59:56.291Z,4.15
2022-08-28T22:02:22.862Z,5.65
2022-08-28T22:04:49.204Z,4.07
2022-08-28T22:07:18.030Z,4.25
2022-08-28T22:09:44.786Z,4.30
2022-08-28T22:12:11.526Z,4.78
2022-08-28T22:14:38.662Z,4.18
2022-08-28T22:17:10.266Z,4.50
2022-08-28T22:19:37.954Z,3.88
2022-08-28T22:22:04.272Z,4.85
2022-08-28T22:24:30.675Z,4.30
2022-08-28T22:26:57.617Z,4.50
2022-08-28T22:29:24.569Z,4.38
2022-08-28T22:31:51.221Z,4.55
2022-08-28T22:34:17.642Z,4.47
2022-08-28T22:36:44.403Z,4.05
2022-08-28T22:39:10.752Z,4.18
2022-08-28T22:41:37.149Z,3.88
2022-08-28T22:44:03.967Z,4.40
2022-08-28T22:46:30.560Z,4.68
2022-08-28T22:48:56.879Z,4.63
2022-08-28T22:51:23.235Z,4.47
2022-08-28T22:53:49.796Z,4.18
2022-08-28T22:56:17.231Z,4.57
2022-08-28T22:58:43.799Z,3.85
2022-08-28T23:01:14.730Z,4.15
2022-08-28T23:03:41.600Z,4.50
2022-08-28T23:06:07.986Z,4.68
2022-08-28T23:08:34.717Z,4.97
2022-08-28T23:11:01.774Z,4.28
2022-08-28T23:13:28.439Z,4.50
2022-08-28T23:15:54.867Z,4.35
2022-08-28T23:18:21.441Z,4.53
2022-08-28T23:20:47.926Z,5.00
2022-08-28T23:23:17.253Z,4.80
2022-08-28T23:25:43.796Z,4.80
2022-08-28T23:28:10.124Z,5.00
2022-08-28T23:30:36.478Z,4.43
2022-08-28T23:33:02.784Z,4.20
2022-08-28T23:35:34.646Z,4.55
2022-08-28T23:38:01.511Z,4.22
2022-08-28T23:40:28.175Z,4.93
2022-08-28T23:42:56.321Z,3.97
2022-08-28T23:45:23.364Z,4.72
2022-08-28T23:47:49.885Z,4.35
2022-08-28T23:50:20.332Z,4.30
2022-08-28T23:52:47.955Z,4.13
2022-08-28T23:55:18.455Z,4.75
2022-08-28T23:57:45.809Z,5.00
